Lafayette, IN (47901)

12:41 PM EDT on September 02, 2015 (GMT -0400)
APRSWXNET | | Change Station
CLOSE
Current Station
Personal Weather Station
Location: Lafayette, IN
Elevation: 662 ft
Nearby Weather Stations

Elev 662 ft 40.38 °N, 86.89 °W | Updated 38 minutes ago

Clear
Clear
87 °F
Feels Like 96 °F
N
3
Wind Variable Wind from WSW
Gusts 6.0 mph

Today
High -- | Low -- °F
--% Chance of Precip.
Yesterday
High -- | Low -- °F
Precip. -- in
7:15 AM 8:18 PM
Waning Gibbous, 79% visible
Pressure 30.08 in
Visibility 10.0 miles
Clouds Clear
Heat Index 96 °F
Dew Point 75 °F
Humidity 67%
Rainfall in
Snow Depth Not available.
UV 7 out of 12
Pollen 10.70 out of 12
Air Quality Not available.
Flu Activity Not available.
METAR KLAF 021554Z 29005KT 10SM CLR 29/21 A3010 RMK AO2 SLP186 T02890211
Pressure 30.08 in
Visibility 10.0 miles
Clouds Clear
Heat Index 96 °F
Dew Point 75 °F
Humidity 67%
Rainfall in
Snow Depth Not available.
UV 7 out of 12
Pollen 10.70 out of 12
Air Quality Not available.
Flu Activity Not available.
METAR KLAF 021554Z 29005KT 10SM CLR 29/21 A3010 RMK AO2 SLP186 T02890211

10-Day Weather Forecast

×

Almanac

Astronomy

Sep. 02, 2015 Rise Set
Actual Time
Civil Twilight
Nautical Twilight
Astronomical Twilight
Moon
Length of Visible Light
Length of Day
Tomorrow will be .
, % of the Moon is Illuminated

Today's Extremes

State Highs State Lows

Community

WunderPhotos

Upload Photos

1,851,783 photos uploaded!

WunderBlogs® & News

Nearby

Air Quality

  Air Quality AQ Index Pollutant
Not available.

Snow Depth

Station Depth Elevation

Earthquake Activity

City Distance Mag. Time & Date
Minimum magnitude displayed is 2.5.

Coastal Water Temperatures

Place Temperature

Stations

Nearby Weather Stations

Station Location Temp. Windchill Dew Point Humidity Wind Precip. Elev Updated Type